Lannon, Wisconsin
Current Conditions -  °F | °C
As of 5:35 AM on Friday 19 Dec 2014 (Local Time) from KMWC Reporting Station
Overcast Overcast  
Wind Chill: 17°   Ceiling: 2800
Heat Index: 23°   Visibility: 10mi
Dew Point: 19°   Wind: 5mph
Humidity: 86%   Direction: 280°W
Pressure: 30.29"   Gusts: NA
Location:  43.15°N, 88.17°W
Report Text: KMWC 191135Z AUTO 28004KT 10SM OVC028 M05/M07 A3029 RMK AO2
Loading
Personal Weather Stations






























Interactive Weather Map New forecast layout! Learn more

10-Day Weather Forecast

Advertisements
Track Severe Weather on mobile